sensor_id;sensor_type;location;lat;lon;timestamp;temperature;humidity
22071;DHT22;11200;51.488;6.668;2022-12-15T00:00:49;-6.30;99.90
22071;DHT22;11200;51.488;6.668;2022-12-15T00:03:33;-6.10;99.90
22071;DHT22;11200;51.488;6.668;2022-12-15T00:06:16;-6.30;99.90
22071;DHT22;11200;51.488;6.668;2022-12-15T00:09:01;-6.30;99.90
22071;DHT22;11200;51.488;6.668;2022-12-15T00:11:44;-6.30;99.90
22071;DHT22;11200;51.488;6.668;2022-12-15T00:14:29;-6.30;99.90
22071;DHT22;11200;51.488;6.668;2022-12-15T00:17:13;-6.30;99.90
22071;DHT22;11200;51.488;6.668;2022-12-15T00:19:57;-6.10;99.90
22071;DHT22;11200;51.488;6.668;2022-12-15T00:22:41;-6.00;99.90
22071;DHT22;11200;51.488;6.668;2022-12-15T00:25:25;-6.30;99.90
22071;DHT22;11200;51.488;6.668;2022-12-15T00:28:09;-6.10;99.90
22071;DHT22;11200;51.488;6.668;2022-12-15T00:30:54;-6.20;99.90
22071;DHT22;11200;51.488;6.668;2022-12-15T00:33:40;-6.50;99.90
22071;DHT22;11200;51.488;6.668;2022-12-15T00:36:24;-6.20;99.90
22071;DHT22;11200;51.488;6.668;2022-12-15T00:39:08;-4.70;99.90
22071;DHT22;11200;51.488;6.668;2022-12-15T00:41:34;-6.20;99.90
22071;DHT22;11200;51.488;6.668;2022-12-15T00:43:59;-6.40;99.90
22071;DHT22;11200;51.488;6.668;2022-12-15T00:46:25;-6.30;99.90
22071;DHT22;11200;51.488;6.668;2022-12-15T00:49:09;-6.50;99.90
22071;DHT22;11200;51.488;6.668;2022-12-15T00:51:54;-6.40;99.90
22071;DHT22;11200;51.488;6.668;2022-12-15T00:54:38;-6.30;99.90
22071;DHT22;11200;51.488;6.668;2022-12-15T00:57:22;-6.30;99.90
22071;DHT22;11200;51.488;6.668;2022-12-15T01:00:07;-5.10;99.90
22071;DHT22;11200;51.488;6.668;2022-12-15T01:02:51;-6.30;99.90
22071;DHT22;11200;51.488;6.668;2022-12-15T01:05:35;-6.50;99.90
22071;DHT22;11200;51.488;6.668;2022-12-15T01:08:19;-6.50;99.90
22071;DHT22;11200;51.488;6.668;2022-12-15T01:11:04;-6.30;99.90
22071;DHT22;11200;51.488;6.668;2022-12-15T01:13:48;-6.30;99.90
22071;DHT22;11200;51.488;6.668;2022-12-15T01:16:32;-6.60;99.90
22071;DHT22;11200;51.488;6.668;2022-12-15T01:19:16;-6.60;99.90
22071;DHT22;11200;51.488;6.668;2022-12-15T01:22:00;-6.50;99.90
22071;DHT22;11200;51.488;6.668;2022-12-15T01:24:25;-6.40;99.90
22071;DHT22;11200;51.488;6.668;2022-12-15T01:26:51;-6.60;99.90
22071;DHT22;11200;51.488;6.668;2022-12-15T01:29:16;-6.60;99.90
22071;DHT22;11200;51.488;6.668;2022-12-15T01:31:42;-6.60;99.90
22071;DHT22;11200;51.488;6.668;2022-12-15T01:34:08;-6.70;99.90
22071;DHT22;11200;51.488;6.668;2022-12-15T01:36:33;-6.40;99.90
22071;DHT22;11200;51.488;6.668;2022-12-15T01:39:00;-6.90;99.90
22071;DHT22;11200;51.488;6.668;2022-12-15T01:41:26;-6.40;99.90
22071;DHT22;11200;51.488;6.668;2022-12-15T01:43:52;-6.40;99.90
22071;DHT22;11200;51.488;6.668;2022-12-15T01:46:20;-6.70;99.90
22071;DHT22;11200;51.488;6.668;2022-12-15T01:48:50;-6.60;99.90
22071;DHT22;11200;51.488;6.668;2022-12-15T01:51:24;-6.50;99.90
22071;DHT22;11200;51.488;6.668;2022-12-15T01:54:07;-6.50;99.90
22071;DHT22;11200;51.488;6.668;2022-12-15T01:56:38;-6.40;99.90
22071;DHT22;11200;51.488;6.668;2022-12-15T01:59:08;-6.70;99.90
22071;DHT22;11200;51.488;6.668;2022-12-15T02:01:35;-6.60;99.90
22071;DHT22;11200;51.488;6.668;2022-12-15T02:04:01;-6.60;99.90
22071;DHT22;11200;51.488;6.668;2022-12-15T02:06:27;-6.70;99.90
22071;DHT22;11200;51.488;6.668;2022-12-15T02:08:55;-6.50;99.90
22071;DHT22;11200;51.488;6.668;2022-12-15T02:11:42;-6.70;99.90
22071;DHT22;11200;51.488;6.668;2022-12-15T02:14:10;-6.50;99.90
22071;DHT22;11200;51.488;6.668;2022-12-15T02:33:19;-6.40;99.90
22071;DHT22;11200;51.488;6.668;2022-12-15T02:36:17;-6.40;99.90
22071;DHT22;11200;51.488;6.668;2022-12-15T02:38:48;-6.40;99.90
22071;DHT22;11200;51.488;6.668;2022-12-15T02:44:02;-6.40;99.90
22071;DHT22;11200;51.488;6.668;2022-12-15T02:46:49;-6.40;99.90
22071;DHT22;11200;51.488;6.668;2022-12-15T02:52:26;-6.60;99.90
22071;DHT22;11200;51.488;6.668;2022-12-15T02:57:41;-6.40;99.90
22071;DHT22;11200;51.488;6.668;2022-12-15T03:00:09;-6.40;99.90
22071;DHT22;11200;51.488;6.668;2022-12-15T03:02:38;-6.30;99.90
22071;DHT22;11200;51.488;6.668;2022-12-15T03:05:05;-6.30;99.90
22071;DHT22;11200;51.488;6.668;2022-12-15T03:07:31;-6.30;99.90
22071;DHT22;11200;51.488;6.668;2022-12-15T03:09:59;-6.30;99.90
22071;DHT22;11200;51.488;6.668;2022-12-15T03:12:25;-6.40;99.90
22071;DHT22;11200;51.488;6.668;2022-12-15T03:14:52;-6.30;99.90
22071;DHT22;11200;51.488;6.668;2022-12-15T03:17:18;-6.30;99.90
22071;DHT22;11200;51.488;6.668;2022-12-15T03:19:43;-6.20;99.90
22071;DHT22;11200;51.488;6.668;2022-12-15T03:22:09;-6.40;99.90
22071;DHT22;11200;51.488;6.668;2022-12-15T03:24:35;-6.20;99.90
22071;DHT22;11200;51.488;6.668;2022-12-15T03:27:00;-6.30;99.90
22071;DHT22;11200;51.488;6.668;2022-12-15T03:29:26;-6.30;99.90
22071;DHT22;11200;51.488;6.668;2022-12-15T03:31:51;-6.40;99.90
22071;DHT22;11200;51.488;6.668;2022-12-15T03:34:17;-6.30;99.90
22071;DHT22;11200;51.488;6.668;2022-12-15T03:36:43;-6.00;99.90
22071;DHT22;11200;51.488;6.668;2022-12-15T03:39:08;-6.10;99.90
22071;DHT22;11200;51.488;6.668;2022-12-15T03:41:34;-6.10;99.90
22071;DHT22;11200;51.488;6.668;2022-12-15T03:43:59;-6.00;99.90
22071;DHT22;11200;51.488;6.668;2022-12-15T03:46:25;-5.90;99.90
22071;DHT22;11200;51.488;6.668;2022-12-15T03:48:51;-6.20;99.90
22071;DHT22;11200;51.488;6.668;2022-12-15T03:51:18;-5.90;99.90
22071;DHT22;11200;51.488;6.668;2022-12-15T03:53:44;-5.90;99.90
22071;DHT22;11200;51.488;6.668;2022-12-15T03:56:11;-6.10;99.90
22071;DHT22;11200;51.488;6.668;2022-12-15T03:58:38;-6.20;99.90
22071;DHT22;11200;51.488;6.668;2022-12-15T04:01:11;-6.00;99.90
22071;DHT22;11200;51.488;6.668;2022-12-15T04:03:37;-5.90;99.90
22071;DHT22;11200;51.488;6.668;2022-12-15T04:06:03;-5.90;99.90
22071;DHT22;11200;51.488;6.668;2022-12-15T04:08:29;-5.80;99.90
22071;DHT22;11200;51.488;6.668;2022-12-15T04:10:54;-5.80;99.90
22071;DHT22;11200;51.488;6.668;2022-12-15T04:13:20;-5.80;99.90
22071;DHT22;11200;51.488;6.668;2022-12-15T04:15:45;-6.00;99.90
22071;DHT22;11200;51.488;6.668;2022-12-15T04:18:11;-5.80;99.90
22071;DHT22;11200;51.488;6.668;2022-12-15T04:20:37;-3.80;99.90
22071;DHT22;11200;51.488;6.668;2022-12-15T04:23:03;-5.90;99.90
22071;DHT22;11200;51.488;6.668;2022-12-15T04:25:31;-5.90;99.90
22071;DHT22;11200;51.488;6.668;2022-12-15T04:28:15;-5.90;99.90
22071;DHT22;11200;51.488;6.668;2022-12-15T04:31:08;-5.80;99.90
22071;DHT22;11200;51.488;6.668;2022-12-15T04:33:55;-5.30;99.90
22071;DHT22;11200;51.488;6.668;2022-12-15T04:36:43;-5.60;99.90
22071;DHT22;11200;51.488;6.668;2022-12-15T04:39:28;-5.60;99.90
22071;DHT22;11200;51.488;6.668;2022-12-15T04:42:12;-5.80;99.90
22071;DHT22;11200;51.488;6.668;2022-12-15T04:45:00;-5.60;99.90
22071;DHT22;11200;51.488;6.668;2022-12-15T04:47:45;-5.80;99.90
22071;DHT22;11200;51.488;6.668;2022-12-15T04:50:28;-5.60;99.90
22071;DHT22;11200;51.488;6.668;2022-12-15T04:53:15;-5.70;99.90
22071;DHT22;11200;51.488;6.668;2022-12-15T04:56:00;-4.00;99.90
22071;DHT22;11200;51.488;6.668;2022-12-15T04:58:45;-5.70;99.90
22071;DHT22;11200;51.488;6.668;2022-12-15T05:01:29;-5.50;99.90
22071;DHT22;11200;51.488;6.668;2022-12-15T05:04:13;-5.70;99.90
22071;DHT22;11200;51.488;6.668;2022-12-15T05:06:57;-4.10;99.90
22071;DHT22;11200;51.488;6.668;2022-12-15T05:09:41;-5.70;99.90
22071;DHT22;11200;51.488;6.668;2022-12-15T05:12:26;-5.70;99.90
22071;DHT22;11200;51.488;6.668;2022-12-15T05:15:10;-5.90;99.90
22071;DHT22;11200;51.488;6.668;2022-12-15T05:17:54;-5.20;99.90
22071;DHT22;11200;51.488;6.668;2022-12-15T05:20:38;-5.90;99.90
22071;DHT22;11200;51.488;6.668;2022-12-15T05:23:22;-5.40;99.90
22071;DHT22;11200;51.488;6.668;2022-12-15T05:26:07;-5.40;99.90
22071;DHT22;11200;51.488;6.668;2022-12-15T05:28:51;-5.40;99.90
22071;DHT22;11200;51.488;6.668;2022-12-15T05:31:35;-5.60;99.90
22071;DHT22;11200;51.488;6.668;2022-12-15T05:34:18;-5.60;99.90
22071;DHT22;11200;51.488;6.668;2022-12-15T05:36:52;-5.40;99.90
22071;DHT22;11200;51.488;6.668;2022-12-15T05:39:18;-5.60;99.90
22071;DHT22;11200;51.488;6.668;2022-12-15T05:41:44;-5.40;99.90
22071;DHT22;11200;51.488;6.668;2022-12-15T05:44:13;-5.60;99.90
22071;DHT22;11200;51.488;6.668;2022-12-15T05:46:46;-5.20;99.90
22071;DHT22;11200;51.488;6.668;2022-12-15T05:49:14;-5.60;99.90
22071;DHT22;11200;51.488;6.668;2022-12-15T05:51:42;-4.40;99.90
22071;DHT22;11200;51.488;6.668;2022-12-15T05:54:12;-5.40;99.90
22071;DHT22;11200;51.488;6.668;2022-12-15T05:56:40;-5.40;99.90
22071;DHT22;11200;51.488;6.668;2022-12-15T05:59:05;-5.50;99.90
22071;DHT22;11200;51.488;6.668;2022-12-15T06:01:31;-5.30;99.90
22071;DHT22;11200;51.488;6.668;2022-12-15T06:03:58;-5.30;99.90
22071;DHT22;11200;51.488;6.668;2022-12-15T06:06:24;-4.20;99.90
22071;DHT22;11200;51.488;6.668;2022-12-15T06:08:50;-5.30;99.90
22071;DHT22;11200;51.488;6.668;2022-12-15T06:11:18;-5.40;99.90
22071;DHT22;11200;51.488;6.668;2022-12-15T06:13:44;-5.50;99.90
22071;DHT22;11200;51.488;6.668;2022-12-15T06:16:17;-5.90;99.90
22071;DHT22;11200;51.488;6.668;2022-12-15T06:18:46;-5.30;99.90
22071;DHT22;11200;51.488;6.668;2022-12-15T06:21:18;-5.40;99.90
22071;DHT22;11200;51.488;6.668;2022-12-15T06:23:45;-5.40;99.90
22071;DHT22;11200;51.488;6.668;2022-12-15T06:26:17;-5.40;99.90
22071;DHT22;11200;51.488;6.668;2022-12-15T06:28:43;-5.40;99.90
22071;DHT22;11200;51.488;6.668;2022-12-15T06:31:10;-5.50;99.90
22071;DHT22;11200;51.488;6.668;2022-12-15T06:33:37;-5.40;99.90
22071;DHT22;11200;51.488;6.668;2022-12-15T06:36:05;-5.40;99.90
22071;DHT22;11200;51.488;6.668;2022-12-15T06:38:32;-5.40;99.90
22071;DHT22;11200;51.488;6.668;2022-12-15T06:40:59;-5.60;99.90
22071;DHT22;11200;51.488;6.668;2022-12-15T06:43:29;-5.40;99.90
22071;DHT22;11200;51.488;6.668;2022-12-15T06:45:55;-5.40;99.90
22071;DHT22;11200;51.488;6.668;2022-12-15T06:48:22;-5.40;99.90
22071;DHT22;11200;51.488;6.668;2022-12-15T06:50:48;-5.40;99.90
22071;DHT22;11200;51.488;6.668;2022-12-15T06:53:16;-5.40;99.90
22071;DHT22;11200;51.488;6.668;2022-12-15T06:55:43;-5.40;99.90
22071;DHT22;11200;51.488;6.668;2022-12-15T06:58:09;-5.40;99.90
22071;DHT22;11200;51.488;6.668;2022-12-15T07:00:36;-5.40;99.90
22071;DHT22;11200;51.488;6.668;2022-12-15T07:03:06;-5.40;99.90
22071;DHT22;11200;51.488;6.668;2022-12-15T07:05:31;-5.50;99.90
22071;DHT22;11200;51.488;6.668;2022-12-15T07:07:57;-5.50;99.90
22071;DHT22;11200;51.488;6.668;2022-12-15T07:10:23;-5.50;99.90
22071;DHT22;11200;51.488;6.668;2022-12-15T07:12:48;-4.10;99.90
22071;DHT22;11200;51.488;6.668;2022-12-15T07:15:14;-5.40;99.90
22071;DHT22;11200;51.488;6.668;2022-12-15T07:17:40;-5.40;99.90
22071;DHT22;11200;51.488;6.668;2022-12-15T07:20:06;-5.40;99.90
22071;DHT22;11200;51.488;6.668;2022-12-15T07:22:32;-5.40;99.90
22071;DHT22;11200;51.488;6.668;2022-12-15T07:24:57;-5.40;99.90
22071;DHT22;11200;51.488;6.668;2022-12-15T07:27:23;-5.40;99.90
22071;DHT22;11200;51.488;6.668;2022-12-15T07:29:49;-5.40;99.90
22071;DHT22;11200;51.488;6.668;2022-12-15T07:32:15;-5.40;99.90
22071;DHT22;11200;51.488;6.668;2022-12-15T07:34:41;-5.40;99.90
22071;DHT22;11200;51.488;6.668;2022-12-15T07:37:07;-5.40;99.90
22071;DHT22;11200;51.488;6.668;2022-12-15T07:39:32;-5.40;99.90
22071;DHT22;11200;51.488;6.668;2022-12-15T07:41:58;-5.40;99.90
22071;DHT22;11200;51.488;6.668;2022-12-15T07:44:24;-5.40;99.90
22071;DHT22;11200;51.488;6.668;2022-12-15T07:46:49;-5.40;99.90
22071;DHT22;11200;51.488;6.668;2022-12-15T07:49:16;-5.60;99.90
22071;DHT22;11200;51.488;6.668;2022-12-15T07:51:42;-5.40;99.90
22071;DHT22;11200;51.488;6.668;2022-12-15T07:54:12;-5.40;99.90
22071;DHT22;11200;51.488;6.668;2022-12-15T07:56:38;-6.10;99.90
22071;DHT22;11200;51.488;6.668;2022-12-15T07:59:05;-5.60;99.90
22071;DHT22;11200;51.488;6.668;2022-12-15T08:01:31;-5.40;99.90
22071;DHT22;11200;51.488;6.668;2022-12-15T08:03:56;-5.40;99.90
22071;DHT22;11200;51.488;6.668;2022-12-15T08:06:22;-5.40;99.90
22071;DHT22;11200;51.488;6.668;2022-12-15T08:08:49;-5.40;99.90
22071;DHT22;11200;51.488;6.668;2022-12-15T08:11:15;-5.40;99.90
22071;DHT22;11200;51.488;6.668;2022-12-15T08:13:42;-5.50;99.90
22071;DHT22;11200;51.488;6.668;2022-12-15T08:16:08;-5.40;99.90
22071;DHT22;11200;51.488;6.668;2022-12-15T08:18:34;-5.30;99.90
22071;DHT22;11200;51.488;6.668;2022-12-15T08:21:04;-4.00;99.90
22071;DHT22;11200;51.488;6.668;2022-12-15T08:23:31;-5.30;99.90
22071;DHT22;11200;51.488;6.668;2022-12-15T08:26:05;-5.70;99.90
22071;DHT22;11200;51.488;6.668;2022-12-15T08:28:33;-5.30;99.90
22071;DHT22;11200;51.488;6.668;2022-12-15T08:33:28;-4.00;99.90
22071;DHT22;11200;51.488;6.668;2022-12-15T08:35:59;-5.40;99.90
22071;DHT22;11200;51.488;6.668;2022-12-15T08:38:27;-5.20;99.90
22071;DHT22;11200;51.488;6.668;2022-12-15T08:40:53;-5.10;99.90
22071;DHT22;11200;51.488;6.668;2022-12-15T08:43:18;-5.10;99.90
22071;DHT22;11200;51.488;6.668;2022-12-15T08:45:44;-5.30;99.90
22071;DHT22;11200;51.488;6.668;2022-12-15T08:48:10;-5.00;99.90
22071;DHT22;11200;51.488;6.668;2022-12-15T08:50:35;-5.00;99.90
22071;DHT22;11200;51.488;6.668;2022-12-15T08:53:01;-5.00;99.90
22071;DHT22;11200;51.488;6.668;2022-12-15T08:55:26;-5.00;99.90
22071;DHT22;11200;51.488;6.668;2022-12-15T08:57:55;-4.90;99.90
22071;DHT22;11200;51.488;6.668;2022-12-15T09:00:21;-4.80;99.90
22071;DHT22;11200;51.488;6.668;2022-12-15T09:02:46;-4.80;99.90
22071;DHT22;11200;51.488;6.668;2022-12-15T09:05:12;-4.80;99.90
22071;DHT22;11200;51.488;6.668;2022-12-15T09:07:37;-4.70;99.90
22071;DHT22;11200;51.488;6.668;2022-12-15T09:10:03;-4.70;99.90
22071;DHT22;11200;51.488;6.668;2022-12-15T09:12:29;-4.70;99.90
22071;DHT22;11200;51.488;6.668;2022-12-15T09:14:54;-4.60;99.90
22071;DHT22;11200;51.488;6.668;2022-12-15T09:17:20;-4.60;99.90
22071;DHT22;11200;51.488;6.668;2022-12-15T09:19:45;-4.50;99.90
22071;DHT22;11200;51.488;6.668;2022-12-15T09:22:11;-4.50;99.90
22071;DHT22;11200;51.488;6.668;2022-12-15T09:24:36;-2.60;99.90
22071;DHT22;11200;51.488;6.668;2022-12-15T09:27:02;-4.20;99.90
22071;DHT22;11200;51.488;6.668;2022-12-15T09:29:28;-4.00;99.90
22071;DHT22;11200;51.488;6.668;2022-12-15T09:31:53;-4.00;99.90
22071;DHT22;11200;51.488;6.668;2022-12-15T09:34:19;-3.60;99.90
22071;DHT22;11200;51.488;6.668;2022-12-15T09:36:44;-3.20;99.90
22071;DHT22;11200;51.488;6.668;2022-12-15T09:39:10;-3.20;99.90
22071;DHT22;11200;51.488;6.668;2022-12-15T09:41:38;-3.10;99.90
22071;DHT22;11200;51.488;6.668;2022-12-15T09:44:14;-2.90;99.90
22071;DHT22;11200;51.488;6.668;2022-12-15T09:52:41;-2.00;99.90
22071;DHT22;11200;51.488;6.668;2022-12-15T09:55:20;-1.60;99.90
22071;DHT22;11200;51.488;6.668;2022-12-15T09:58:31;-1.30;99.90
22071;DHT22;11200;51.488;6.668;2022-12-15T10:01:03;-0.90;99.90
22071;DHT22;11200;51.488;6.668;2022-12-15T10:04:03;-0.50;99.90
22071;DHT22;11200;51.488;6.668;2022-12-15T10:06:40;-0.10;99.90
22071;DHT22;11200;51.488;6.668;2022-12-15T10:09:17;0.20;99.90
22071;DHT22;11200;51.488;6.668;2022-12-15T10:14:45;0.60;99.90
22071;DHT22;11200;51.488;6.668;2022-12-15T10:17:56;0.80;99.90
22071;DHT22;11200;51.488;6.668;2022-12-15T10:20:28;0.80;99.90
22071;DHT22;11200;51.488;6.668;2022-12-15T10:22:58;0.90;99.90
22071;DHT22;11200;51.488;6.668;2022-12-15T10:25:26;1.10;99.90
22071;DHT22;11200;51.488;6.668;2022-12-15T10:30:58;0.80;99.90
22071;DHT22;11200;51.488;6.668;2022-12-15T10:33:34;0.80;99.90
22071;DHT22;11200;51.488;6.668;2022-12-15T10:36:00;0.80;99.90
22071;DHT22;11200;51.488;6.668;2022-12-15T10:38:36;0.80;99.90
22071;DHT22;11200;51.488;6.668;2022-12-15T10:41:10;0.90;99.90
22071;DHT22;11200;51.488;6.668;2022-12-15T10:43:42;0.90;99.90
22071;DHT22;11200;51.488;6.668;2022-12-15T10:46:23;0.40;99.90
22071;DHT22;11200;51.488;6.668;2022-12-15T10:48:58;1.10;99.90
22071;DHT22;11200;51.488;6.668;2022-12-15T10:54:04;1.20;99.90
22071;DHT22;11200;51.488;6.668;2022-12-15T10:56:32;1.30;99.90
22071;DHT22;11200;51.488;6.668;2022-12-15T10:59:05;2.40;99.90
22071;DHT22;11200;51.488;6.668;2022-12-15T11:01:45;1.40;99.90
22071;DHT22;11200;51.488;6.668;2022-12-15T11:04:31;1.50;99.90
22071;DHT22;11200;51.488;6.668;2022-12-15T11:07:02;1.50;99.90
22071;DHT22;11200;51.488;6.668;2022-12-15T11:09:36;1.60;99.90
22071;DHT22;11200;51.488;6.668;2022-12-15T11:12:17;1.60;99.90
22071;DHT22;11200;51.488;6.668;2022-12-15T11:15:07;1.70;99.90
22071;DHT22;11200;51.488;6.668;2022-12-15T11:17:56;1.70;99.90
22071;DHT22;11200;51.488;6.668;2022-12-15T11:20:31;1.30;99.90
22071;DHT22;11200;51.488;6.668;2022-12-15T11:23:08;2.50;99.90
22071;DHT22;11200;51.488;6.668;2022-12-15T11:25:42;1.70;99.90
22071;DHT22;11200;51.488;6.668;2022-12-15T11:28:33;1.50;99.90
22071;DHT22;11200;51.488;6.668;2022-12-15T11:31:08;1.70;99.90
22071;DHT22;11200;51.488;6.668;2022-12-15T11:33:37;1.10;99.90
22071;DHT22;11200;51.488;6.668;2022-12-15T11:39:29;1.60;99.90
22071;DHT22;11200;51.488;6.668;2022-12-15T11:42:10;1.60;99.90
22071;DHT22;11200;51.488;6.668;2022-12-15T11:45:01;1.60;99.90
22071;DHT22;11200;51.488;6.668;2022-12-15T11:47:42;1.50;99.90
22071;DHT22;11200;51.488;6.668;2022-12-15T11:50:32;1.50;99.90
22071;DHT22;11200;51.488;6.668;2022-12-15T11:53:25;1.40;99.90
22071;DHT22;11200;51.488;6.668;2022-12-15T11:56:04;1.40;99.90
22071;DHT22;11200;51.488;6.668;2022-12-15T11:58:49;1.30;99.90
22071;DHT22;11200;51.488;6.668;2022-12-15T12:04:26;1.30;99.90
22071;DHT22;11200;51.488;6.668;2022-12-15T12:06:56;1.20;99.90
22071;DHT22;11200;51.488;6.668;2022-12-15T12:09:33;0.70;99.90
22071;DHT22;11200;51.488;6.668;2022-12-15T12:12:23;1.30;99.90
22071;DHT22;11200;51.488;6.668;2022-12-15T12:15:05;1.30;99.90
22071;DHT22;11200;51.488;6.668;2022-12-15T12:17:39;1.30;99.90
22071;DHT22;11200;51.488;6.668;2022-12-15T12:20:24;1.20;99.90
22071;DHT22;11200;51.488;6.668;2022-12-15T12:23:15;1.20;99.90
22071;DHT22;11200;51.488;6.668;2022-12-15T12:28:32;1.70;99.90
22071;DHT22;11200;51.488;6.668;2022-12-15T12:31:02;0.90;99.90
22071;DHT22;11200;51.488;6.668;2022-12-15T12:33:32;1.20;99.90
22071;DHT22;11200;51.488;6.668;2022-12-15T12:36:09;0.90;99.90
22071;DHT22;11200;51.488;6.668;2022-12-15T12:38:39;1.10;99.90
22071;DHT22;11200;51.488;6.668;2022-12-15T12:44:03;0.90;99.90
22071;DHT22;11200;51.488;6.668;2022-12-15T12:46:38;2.10;99.90
22071;DHT22;11200;51.488;6.668;2022-12-15T12:51:53;0.90;99.90
22071;DHT22;11200;51.488;6.668;2022-12-15T12:59:51;0.70;99.90
22071;DHT22;11200;51.488;6.668;2022-12-15T13:04:53;0.70;99.90
22071;DHT22;11200;51.488;6.668;2022-12-15T13:07:29;0.20;99.90
22071;DHT22;11200;51.488;6.668;2022-12-15T13:10:17;0.70;99.90
22071;DHT22;11200;51.488;6.668;2022-12-15T13:13:49;0.70;99.90
22071;DHT22;11200;51.488;6.668;2022-12-15T13:15:45;0.60;99.90
22071;DHT22;11200;51.488;6.668;2022-12-15T13:18:16;1.50;99.90
22071;DHT22;11200;51.488;6.668;2022-12-15T13:20:44;0.50;99.90
22071;DHT22;11200;51.488;6.668;2022-12-15T13:39:51;0.20;99.90
22071;DHT22;11200;51.488;6.668;2022-12-15T13:44:28;0.10;99.90
22071;DHT22;11200;51.488;6.668;2022-12-15T13:47:03;0.10;99.90
22071;DHT22;11200;51.488;6.668;2022-12-15T13:49:36;0.10;99.90
22071;DHT22;11200;51.488;6.668;2022-12-15T13:52:27;0.00;99.90
22071;DHT22;11200;51.488;6.668;2022-12-15T13:55:02;0.00;99.90
22071;DHT22;11200;51.488;6.668;2022-12-15T13:57:33;0.00;99.90
22071;DHT22;11200;51.488;6.668;2022-12-15T14:00:06;-0.10;99.90
22071;DHT22;11200;51.488;6.668;2022-12-15T14:02:43;-0.10;99.90
22071;DHT22;11200;51.488;6.668;2022-12-15T14:05:19;-0.10;99.90
22071;DHT22;11200;51.488;6.668;2022-12-15T14:07:57;-0.20;99.90
22071;DHT22;11200;51.488;6.668;2022-12-15T14:13:05;-0.20;99.90
22071;DHT22;11200;51.488;6.668;2022-12-15T14:15:34;-0.20;99.90
22071;DHT22;11200;51.488;6.668;2022-12-15T14:18:01;-0.30;99.90
22071;DHT22;11200;51.488;6.668;2022-12-15T14:20:39;-0.40;99.90
22071;DHT22;11200;51.488;6.668;2022-12-15T14:23:22;0.60;99.90
22071;DHT22;11200;51.488;6.668;2022-12-15T14:26:05;-0.20;99.90
22071;DHT22;11200;51.488;6.668;2022-12-15T14:28:34;-0.40;99.90
22071;DHT22;11200;51.488;6.668;2022-12-15T14:31:26;-0.40;99.90
22071;DHT22;11200;51.488;6.668;2022-12-15T14:34:14;-0.40;99.90
22071;DHT22;11200;51.488;6.668;2022-12-15T14:36:43;-0.60;99.90
22071;DHT22;11200;51.488;6.668;2022-12-15T14:39:21;-0.90;99.90
22071;DHT22;11200;51.488;6.668;2022-12-15T14:41:48;-0.50;99.90
22071;DHT22;11200;51.488;6.668;2022-12-15T14:44:34;-0.60;99.90
22071;DHT22;11200;51.488;6.668;2022-12-15T14:47:02;-0.60;99.90
22071;DHT22;11200;51.488;6.668;2022-12-15T14:49:34;-0.60;99.90
22071;DHT22;11200;51.488;6.668;2022-12-15T14:52:04;-0.60;99.90
22071;DHT22;11200;51.488;6.668;2022-12-15T14:54:37;-0.70;99.90
22071;DHT22;11200;51.488;6.668;2022-12-15T14:57:14;-0.70;99.90
22071;DHT22;11200;51.488;6.668;2022-12-15T14:59:43;-0.80;99.90
22071;DHT22;11200;51.488;6.668;2022-12-15T15:02:19;0.30;99.90
22071;DHT22;11200;51.488;6.668;2022-12-15T15:07:25;-0.80;99.90
22071;DHT22;11200;51.488;6.668;2022-12-15T15:09:52;-0.80;99.90
22071;DHT22;11200;51.488;6.668;2022-12-15T15:12:21;-0.80;99.90
22071;DHT22;11200;51.488;6.668;2022-12-15T15:15:00;-0.90;99.90
22071;DHT22;11200;51.488;6.668;2022-12-15T15:19:59;-0.90;99.90
22071;DHT22;11200;51.488;6.668;2022-12-15T15:22:34;-1.00;99.90
22071;DHT22;11200;51.488;6.668;2022-12-15T15:25:02;0.80;99.90
22071;DHT22;11200;51.488;6.668;2022-12-15T15:27:43;-1.20;99.90
22071;DHT22;11200;51.488;6.668;2022-12-15T15:30:22;-1.10;99.90
22071;DHT22;11200;51.488;6.668;2022-12-15T15:32:54;-1.10;99.90
22071;DHT22;11200;51.488;6.668;2022-12-15T15:35:28;-1.00;99.90
22071;DHT22;11200;51.488;6.668;2022-12-15T15:40:40;-1.20;99.90
22071;DHT22;11200;51.488;6.668;2022-12-15T15:43:12;-1.30;99.90
22071;DHT22;11200;51.488;6.668;2022-12-15T15:45:39;-1.30;99.90
22071;DHT22;11200;51.488;6.668;2022-12-15T15:48:06;-1.50;99.90
22071;DHT22;11200;51.488;6.668;2022-12-15T15:50:34;-1.40;99.90
22071;DHT22;11200;51.488;6.668;2022-12-15T15:53:00;-2.20;99.90
22071;DHT22;11200;51.488;6.668;2022-12-15T15:55:29;-1.60;99.90
22071;DHT22;11200;51.488;6.668;2022-12-15T15:57:56;-1.90;99.90
22071;DHT22;11200;51.488;6.668;2022-12-15T16:00:24;-1.80;99.90
22071;DHT22;11200;51.488;6.668;2022-12-15T16:02:50;-1.60;99.90
22071;DHT22;11200;51.488;6.668;2022-12-15T16:05:16;-1.70;99.90
22071;DHT22;11200;51.488;6.668;2022-12-15T16:07:43;-2.20;99.90
22071;DHT22;11200;51.488;6.668;2022-12-15T16:10:14;-1.80;99.90
22071;DHT22;11200;51.488;6.668;2022-12-15T16:12:50;-1.80;99.90
22071;DHT22;11200;51.488;6.668;2022-12-15T16:15:28;-1.80;99.90
22071;DHT22;11200;51.488;6.668;2022-12-15T16:17:54;-2.20;99.90
22071;DHT22;11200;51.488;6.668;2022-12-15T16:20:22;-2.40;99.90
22071;DHT22;11200;51.488;6.668;2022-12-15T16:22:54;-2.50;99.90
22071;DHT22;11200;51.488;6.668;2022-12-15T16:25:39;-2.00;99.90
22071;DHT22;11200;51.488;6.668;2022-12-15T16:28:11;-2.00;99.90
22071;DHT22;11200;51.488;6.668;2022-12-15T16:30:38;-0.80;99.90
22071;DHT22;11200;51.488;6.668;2022-12-15T16:33:05;-2.10;99.90
22071;DHT22;11200;51.488;6.668;2022-12-15T16:35:30;-2.10;99.90
22071;DHT22;11200;51.488;6.668;2022-12-15T16:37:56;-2.20;99.90
22071;DHT22;11200;51.488;6.668;2022-12-15T16:40:24;-2.20;99.90
22071;DHT22;11200;51.488;6.668;2022-12-15T16:42:53;-2.50;99.90
22071;DHT22;11200;51.488;6.668;2022-12-15T16:45:24;-2.30;99.90
22071;DHT22;11200;51.488;6.668;2022-12-15T16:47:51;-2.30;99.90
22071;DHT22;11200;51.488;6.668;2022-12-15T16:50:19;-2.60;99.90
22071;DHT22;11200;51.488;6.668;2022-12-15T16:52:47;-2.40;99.90
22071;DHT22;11200;51.488;6.668;2022-12-15T16:55:28;-2.40;99.90
22071;DHT22;11200;51.488;6.668;2022-12-15T16:57:57;-2.20;99.90
22071;DHT22;11200;51.488;6.668;2022-12-15T17:00:31;-2.50;99.90
22071;DHT22;11200;51.488;6.668;2022-12-15T17:02:59;-2.40;99.90
22071;DHT22;11200;51.488;6.668;2022-12-15T17:05:27;-2.50;99.90
22071;DHT22;11200;51.488;6.668;2022-12-15T17:07:58;-2.60;99.90
22071;DHT22;11200;51.488;6.668;2022-12-15T17:10:26;-2.60;99.90
22071;DHT22;11200;51.488;6.668;2022-12-15T17:12:59;-2.70;99.90
22071;DHT22;11200;51.488;6.668;2022-12-15T17:15:26;-2.80;99.90
22071;DHT22;11200;51.488;6.668;2022-12-15T17:17:53;-2.70;99.90
22071;DHT22;11200;51.488;6.668;2022-12-15T17:20:21;-2.70;99.90
22071;DHT22;11200;51.488;6.668;2022-12-15T17:23:09;-2.80;99.90
22071;DHT22;11200;51.488;6.668;2022-12-15T17:25:46;-2.70;99.90
22071;DHT22;11200;51.488;6.668;2022-12-15T17:28:23;-2.80;99.90
22071;DHT22;11200;51.488;6.668;2022-12-15T17:30:49;-1.20;99.90
22071;DHT22;11200;51.488;6.668;2022-12-15T17:33:21;-2.80;99.90
22071;DHT22;11200;51.488;6.668;2022-12-15T17:35:49;-2.80;99.90
22071;DHT22;11200;51.488;6.668;2022-12-15T17:38:17;-2.40;99.90
22071;DHT22;11200;51.488;6.668;2022-12-15T17:40:44;-3.10;99.90